Time;durP1;ratioP1;P1;durP2;ratioP2;P2;SDS_P1;SDS_P2;PMS_P1;PMS_P2;Temp;Humidity;BMP_temperature;BMP_pressure;BME280_temperature;BME280_humidity;BME280_pressure;Samples;Min_cycle;Max_cycle;Signal;HPM_P1;HPM_P2
2023/05/10 00:01:51;;;;;;;4.53;4.13;;;15.70;72.30;;;15.51;63.34;97219.69;5062304;28;21068;-75
2023/05/10 00:04:18;;;;;;;4.63;3.80;;;15.60;74.00;;;15.49;65.35;97219.94;5064398;28;20460;-74
2023/05/10 00:06:45;;;;;;;4.53;4.13;;;15.60;76.60;;;15.26;67.52;97208.44;5066437;28;20544;-74
2023/05/10 00:09:13;;;;;;;5.30;3.93;;;15.50;79.10;;;15.12;68.58;97212.72;5068148;28;20455;-75
2023/05/10 00:11:41;;;;;;;5.87;4.00;;;15.30;79.80;;;15.09;70.70;97207.78;5090261;28;20452;-75
2023/05/10 00:14:08;;;;;;;5.80;4.80;;;15.30;82.00;;;14.96;71.00;97198.22;5090530;28;20443;-75
2023/05/10 00:16:35;;;;;;;6.90;4.90;;;15.20;82.50;;;14.41;72.22;97139.41;5102748;28;21015;-74
2023/05/10 00:19:03;;;;;;;6.50;4.23;;;15.10;83.80;;;14.77;73.04;97200.53;5087380;28;20480;-74
2023/05/10 00:21:30;;;;;;;4.23;3.80;;;15.00;84.60;;;14.68;73.22;97203.75;5084408;28;20474;-76
2023/05/10 00:23:57;;;;;;;5.97;4.67;;;14.90;85.40;;;14.69;74.23;97205.38;5090041;28;20842;-74
2023/05/10 00:26:24;;;;;;;7.27;4.80;;;14.80;88.00;;;14.68;74.54;97197.47;5095331;28;20460;-75
2023/05/10 00:28:53;;;;;;;5.40;4.53;;;14.80;88.60;;;14.65;76.51;97201.56;5086157;28;20467;-75
2023/05/10 00:31:20;;;;;;;5.80;4.80;;;14.70;90.60;;;14.55;77.99;97196.84;5088341;28;20479;-75
2023/05/10 00:33:47;;;;;;;6.17;5.23;;;14.70;91.50;;;14.61;80.40;97192.25;5070355;28;21098;-73
2023/05/10 00:36:15;;;;;;;6.60;5.73;;;14.70;94.10;;;14.58;82.16;97198.22;5086016;28;20871;-73
2023/05/10 00:38:42;;;;;;;6.90;4.73;;;14.80;95.90;;;14.66;82.54;97200.47;5070962;28;20835;-73
2023/05/10 00:41:09;;;;;;;7.27;5.10;;;14.80;96.60;;;14.55;82.86;97202.28;5070538;28;20471;-74
2023/05/10 00:43:36;;;;;;;6.43;5.30;;;14.70;95.90;;;14.54;83.46;97192.47;5071632;28;21043;-74
2023/05/10 00:46:05;;;;;;;6.77;5.50;;;14.70;97.30;;;14.66;85.09;97191.47;5081452;28;20463;-75
2023/05/10 00:48:33;;;;;;;6.00;5.20;;;14.70;99.20;;;14.52;87.36;97193.84;5086525;28;20456;-74
2023/05/10 00:51:00;;;;;;;7.73;5.80;;;14.60;99.90;;;14.50;88.42;97193.28;5069363;28;20459;-74
2023/05/10 00:53:28;;;;;;;6.90;5.40;;;14.60;99.90;;;14.57;86.29;97199.31;5081833;28;20451;-74
2023/05/10 00:55:55;;;;;;;6.67;5.50;;;14.60;99.90;;;14.11;86.84;97129.97;5087240;28;20515;-75
2023/05/10 00:58:27;;;;;;;8.47;6.03;;;14.60;99.90;;;14.47;87.62;97197.34;5070962;28;20450;-75
2023/05/10 01:00:56;;;;;;;6.70;5.13;;;14.60;99.90;;;14.48;88.94;97198.97;5075173;28;20822;-74
2023/05/10 01:03:26;;;;;;;7.63;5.77;;;14.60;99.90;;;14.40;88.22;97186.69;5072528;28;20447;-75
2023/05/10 01:05:53;;;;;;;7.07;5.70;;;14.60;99.90;;;14.40;90.83;97194.84;5089656;28;20462;-74
2023/05/10 01:08:21;;;;;;;7.90;6.43;;;14.60;99.90;;;14.48;90.90;97203.56;5089715;28;20447;-73
2023/05/10 01:10:49;;;;;;;7.83;6.13;;;14.60;99.90;;;14.41;90.68;97199.19;5068777;28;20447;-73
2023/05/10 01:13:32;;;;;;;6.43;5.40;;;14.60;99.90;;;14.39;91.53;97201.34;5080502;28;20517;-74
2023/05/10 01:16:01;;;;;;;7.17;5.57;;;14.60;99.90;;;14.40;91.37;97203.00;5078711;28;20468;-75
2023/05/10 01:18:34;;;;;;;6.87;6.20;;;14.50;99.90;;;14.43;91.62;97202.47;5074337;28;20985;-74
2023/05/10 01:21:19;;;;;;;7.30;5.60;;;14.60;99.90;;;14.33;91.37;97210.56;5068535;28;20455;-75
2023/05/10 01:24:10;;;;;;;6.37;5.77;;;14.50;99.90;;;14.43;93.25;97201.66;5087468;28;20450;-75
2023/05/10 01:27:12;;;;;;;6.27;5.40;;;14.50;99.90;;;14.37;93.01;97200.81;5084449;28;20450;-73
2023/05/10 01:30:15;;;;;;;6.63;5.73;;;14.50;99.90;;;14.41;92.22;97193.75;5074126;28;20445;-75
2023/05/10 01:32:52;;;;;;;7.00;5.67;;;14.50;99.90;;;14.41;93.35;97201.91;5087282;28;20437;-74
2023/05/10 01:35:27;;;;;;;11.00;5.80;;;14.60;99.90;;;14.26;93.49;97199.09;5068747;28;20514;-75
2023/05/10 01:38:07;;;;;;;6.50;5.37;;;14.50;99.90;;;14.24;93.46;97204.75;5060450;28;20446;-76
2023/05/10 01:40:40;;;;;;;6.80;5.60;;;14.40;99.90;;;14.28;94.22;97188.78;5061288;28;20547;-76
2023/05/10 01:43:18;;;;;;;5.43;4.83;;;14.40;99.90;;;14.27;95.28;97200.72;5080928;28;20818;-74
2023/05/10 01:46:00;;;;;;;5.97;4.70;;;14.40;99.90;;;14.26;95.00;97196.38;5061715;28;20462;-75
2023/05/10 01:48:29;;;;;;;7.20;5.00;;;14.40;99.90;;;14.30;94.60;97202.91;5086538;28;20437;-74
2023/05/10 01:50:58;;;;;;;6.60;4.77;;;14.40;99.90;;;14.34;94.67;97198.63;5089438;28;20512;-75
2023/05/10 01:53:26;;;;;;;6.37;5.40;;;14.40;99.90;;;14.29;94.84;97190.41;5080497;28;20470;-76
2023/05/10 01:55:56;;;;;;;6.20;5.23;;;14.40;99.90;;;14.33;95.13;97199.69;5076080;28;20934;-75
2023/05/10 01:58:29;;;;;;;7.30;5.60;;;14.40;99.90;;;14.33;94.40;97198.88;5084977;28;20459;-76
2023/05/10 02:00:59;;;;;;;5.50;4.90;;;14.40;99.90;;;14.33;94.73;97216.00;5078169;28;20452;-75
2023/05/10 02:03:29;;;;;;;6.83;5.30;;;14.40;99.90;;;14.15;95.75;97211.75;5068379;28;20581;-75
2023/05/10 02:05:58;;;;;;;6.47;5.10;;;14.40;99.90;;;14.22;96.03;97206.91;5071462;28;20512;-75
2023/05/10 02:08:26;;;;;;;7.80;5.43;;;14.40;99.90;;;14.23;95.32;97211.28;5066052;28;20451;-75
2023/05/10 02:10:56;;;;;;;8.17;6.80;;;14.40;99.90;;;13.94;95.63;97145.59;5080767;28;20457;-77
2023/05/10 02:13:25;;;;;;;8.07;5.57;;;14.40;99.90;;;14.28;95.78;97199.63;5082048;28;21022;-76
2023/05/10 02:15:58;;;;;;;8.80;5.67;;;14.40;99.90;;;14.45;94.93;97210.38;5055158;28;20945;-77
2023/05/10 02:18:29;;;;;;;6.20;5.30;;;14.50;99.90;;;14.42;95.25;97206.28;5083601;28;20467;-76
2023/05/10 02:20:59;;;;;;;7.57;5.60;;;14.50;99.90;;;14.52;95.58;97205.53;5091514;28;20451;-75
2023/05/10 02:23:28;;;;;;;7.30;6.27;;;14.50;99.90;;;14.48;95.72;97209.00;5079724;28;20481;-76
2023/05/10 02:26:02;;;;;;;5.90;4.93;;;14.60;99.90;;;14.49;95.18;97202.53;5072349;28;20436;-78
2023/05/10 02:28:32;;;;;;;8.13;5.53;;;14.60;99.90;;;14.47;95.67;97205.50;5069069;28;20447;-76
2023/05/10 02:31:00;;;;;;;5.90;5.20;;;14.50;99.90;;;14.45;95.52;97205.75;5057992;28;20546;-77
2023/05/10 02:33:30;;;;;;;5.83;4.40;;;14.50;99.90;;;14.44;93.64;97209.53;5064928;28;20461;-76
2023/05/10 02:35:57;;;;;;;3.83;3.43;;;14.50;99.90;;;14.41;93.35;97209.25;5091215;28;20493;-77
2023/05/10 02:38:26;;;;;;;3.33;3.00;;;14.40;99.90;;;14.31;94.03;97199.94;5089932;28;20551;-74
2023/05/10 02:40:57;;;;;;;3.97;3.43;;;14.40;99.90;;;14.28;93.83;97188.78;5067601;28;20454;-75
2023/05/10 02:43:25;;;;;;;4.73;3.13;;;14.40;99.90;;;14.04;92.80;97161.97;5091259;28;20467;-75
2023/05/10 02:45:52;;;;;;;3.93;3.10;;;14.50;99.90;;;14.19;93.86;97203.94;5073870;28;20442;-75
2023/05/10 02:48:21;;;;;;;2.83;2.53;;;14.40;99.90;;;14.18;94.29;97211.25;5090398;28;21086;-76
2023/05/10 02:50:53;;;;;;;4.47;3.13;;;14.40;99.90;;;14.30;94.46;97208.34;5069866;28;20537;-77
2023/05/10 02:53:28;;;;;;;4.23;3.43;;;14.40;99.90;;;14.31;93.82;97209.97;5082232;28;20559;-77
2023/05/10 02:56:03;;;;;;;4.07;2.97;;;14.40;99.90;;;14.10;94.37;97207.09;5081516;28;20459;-77
2023/05/10 02:58:32;;;;;;;2.73;2.40;;;14.30;99.90;;;14.15;95.66;97206.34;5087759;28;20452;-78
2023/05/10 03:01:01;;;;;;;5.43;3.00;;;14.20;99.90;;;14.16;94.61;97211.50;5061130;28;20499;-77
2023/05/10 03:03:28;;;;;;;3.93;3.27;;;14.20;99.90;;;14.22;95.25;97203.41;5080982;28;20471;-75
2023/05/10 03:05:58;;;;;;;3.30;2.63;;;14.30;99.90;;;13.99;95.63;97176.31;5084579;28;20538;-75
2023/05/10 03:08:26;;;;;;;3.27;2.40;;;14.20;99.90;;;14.05;95.16;97193.50;5078164;28;20533;-75
2023/05/10 03:11:09;;;;;;;2.20;1.80;;;14.20;99.90;;;13.79;92.94;97214.97;5083635;28;20465;-75
2023/05/10 03:13:47;;;;;;;2.33;2.13;;;14.00;99.90;;;13.64;94.43;97206.66;5088980;28;20458;-76
2023/05/10 03:16:25;;;;;;;2.30;2.03;;;13.90;99.90;;;13.69;95.73;97223.00;5079678;28;20491;-75
2023/05/10 03:19:04;;;;;;;2.60;1.77;;;13.90;99.90;;;13.50;95.11;97211.69;5084619;28;20462;-75
2023/05/10 03:21:33;;;;;;;1.40;1.30;;;13.70;99.90;;;13.35;95.24;97209.56;5085114;28;20454;-75
2023/05/10 03:24:11;;;;;;;1.60;1.50;;;13.70;99.90;;;13.42;95.69;97221.03;5081298;28;20455;-75
2023/05/10 03:26:39;;;;;;;1.43;1.33;;;13.60;99.90;;;13.42;96.74;97226.44;5065395;28;20941;-74
2023/05/10 03:29:08;;;;;;;1.83;1.60;;;13.60;99.90;;;13.40;97.17;97226.72;5086263;28;20934;-74
2023/05/10 03:31:36;;;;;;;1.97;1.87;;;13.60;99.90;;;13.64;97.16;97229.19;5078765;28;20470;-75
2023/05/10 03:34:03;;;;;;;1.73;1.40;;;13.70;99.90;;;13.43;96.81;97230.84;5083046;28;21359;-75
2023/05/10 03:36:30;;;;;;;2.57;1.70;;;13.60;99.90;;;13.37;97.03;97235.38;5092375;28;20461;-75
2023/05/10 03:38:59;;;;;;;1.47;1.30;;;13.60;99.90;;;13.41;97.28;97238.38;5061111;28;20437;-76
2023/05/10 03:41:27;;;;;;;1.50;1.40;;;13.60;99.90;;;13.42;96.63;97240.00;5079265;28;20464;-74
2023/05/10 03:43:54;;;;;;;2.53;1.63;;;13.50;99.90;;;13.02;97.35;97190.44;5079530;28;20473;-75
2023/05/10 03:46:21;;;;;;;1.57;1.40;;;13.50;99.90;;;13.30;97.00;97234.72;5089796;28;20479;-75
2023/05/10 03:48:50;;;;;;;1.37;1.27;;;13.50;99.90;;;13.29;97.17;97239.34;5089011;28;20451;-73
2023/05/10 03:51:19;;;;;;;1.10;0.73;;;13.40;99.90;;;13.20;95.85;97245.47;5068753;28;20461;-77
2023/05/10 03:53:46;;;;;;;1.40;1.20;;;13.40;99.90;;;12.31;95.04;97116.03;5064511;28;20547;-76
2023/05/10 03:56:16;;;;;;;1.17;0.90;;;13.40;99.90;;;13.22;95.89;97249.53;5088425;28;20474;-76
2023/05/10 03:58:44;;;;;;;0.83;0.80;;;13.30;99.90;;;13.34;95.91;97256.75;5084521;28;21712;-77
2023/05/10 04:01:11;;;;;;;1.67;1.03;;;13.40;99.90;;;13.31;95.72;97258.91;5076842;28;20453;-77
2023/05/10 04:03:38;;;;;;;1.00;0.73;;;13.40;99.90;;;13.26;96.41;97255.28;5086349;28;20479;-76
2023/05/10 04:06:08;;;;;;;1.03;0.83;;;13.40;99.90;;;13.41;96.57;97269.06;5080041;28;21311;-77
2023/05/10 04:08:37;;;;;;;1.00;0.90;;;13.40;99.90;;;13.30;95.64;97265.41;5064596;28;20978;-77
2023/05/10 04:11:08;;;;;;;0.97;0.90;;;13.40;99.90;;;13.29;95.92;97266.47;5068523;28;20757;-76
2023/05/10 04:13:37;;;;;;;1.17;0.90;;;13.40;99.90;;;13.37;96.35;97277.94;5069266;28;20458;-76
2023/05/10 04:16:06;;;;;;;0.93;0.80;;;13.40;99.90;;;13.33;94.59;97277.63;5084688;28;20570;-77
2023/05/10 04:18:35;;;;;;;0.67;0.50;;;13.50;99.90;;;13.20;94.52;97278.00;5049294;28;20533;-75
2023/05/10 04:21:02;;;;;;;0.90;0.90;;;13.40;99.90;;;13.31;94.35;97277.88;5067057;28;20541;-77
2023/05/10 04:23:29;;;;;;;0.93;0.57;;;13.40;99.90;;;13.23;94.41;97269.38;5085618;28;20560;-76
2023/05/10 04:26:02;;;;;;;1.43;0.63;;;13.40;99.90;;;13.17;93.93;97272.00;5067454;28;20448;-75
2023/05/10 04:28:29;;;;;;;0.80;0.57;;;13.30;99.90;;;13.09;94.31;97260.75;5089719;28;21432;-77
2023/05/10 04:31:03;;;;;;;0.50;0.50;;;13.30;99.90;;;13.24;94.58;97288.09;5075072;28;20447;-75
2023/05/10 04:33:31;;;;;;;0.60;0.60;;;13.40;99.90;;;13.35;93.21;97280.09;5085421;28;20449;-75
2023/05/10 04:35:58;;;;;;;0.50;0.50;;;13.40;99.90;;;13.32;92.64;97287.66;5065685;28;20463;-76
2023/05/10 04:38:26;;;;;;;0.70;0.60;;;13.40;99.90;;;12.92;91.85;97261.63;5067302;28;20519;-75
2023/05/10 04:40:54;;;;;;;0.80;0.70;;;13.30;99.90;;;13.14;92.06;97298.81;5069407;28;20466;-75
2023/05/10 04:43:21;;;;;;;0.90;0.60;;;13.30;99.90;;;13.04;91.34;97297.59;5088241;28;21032;-72
2023/05/10 04:45:50;;;;;;;0.63;0.60;;;13.30;99.90;;;13.03;90.72;97298.66;5081967;28;20462;-74
2023/05/10 04:48:21;;;;;;;0.70;0.70;;;13.30;99.90;;;13.14;91.37;97287.97;5067440;28;21223;-74
2023/05/10 04:50:49;;;;;;;0.80;0.60;;;13.30;99.90;;;13.13;90.49;97316.16;5080328;28;20504;-74
2023/05/10 04:53:16;;;;;;;0.50;0.50;;;13.30;99.90;;;13.01;90.17;97303.50;5072163;28;20464;-75
2023/05/10 04:55:44;;;;;;;0.73;0.73;;;13.30;99.90;;;13.14;89.07;97315.09;5085369;28;20460;-74
2023/05/10 04:58:11;;;;;;;0.80;0.53;;;13.40;99.90;;;13.24;90.09;97311.69;5085708;28;20481;-75
2023/05/10 05:00:38;;;;;;;0.93;0.83;;;13.30;99.90;;;13.48;89.10;97312.31;5085411;28;20452;-75
2023/05/10 05:03:06;;;;;;;0.50;0.50;;;13.50;99.90;;;13.42;87.72;97314.09;5078224;28;20472;-75
2023/05/10 05:05:34;;;;;;;0.70;0.60;;;13.60;99.90;;;13.31;87.59;97323.16;5080236;28;20460;-78
2023/05/10 05:08:01;;;;;;;0.40;0.40;;;13.50;98.90;;;13.66;87.32;97332.91;5072092;28;20463;-78
2023/05/10 05:10:28;;;;;;;0.60;0.53;;;13.60;99.90;;;13.71;85.47;97323.97;5061695;28;20478;-75
2023/05/10 05:12:55;;;;;;;0.67;0.60;;;13.80;96.80;;;13.57;84.89;97329.81;5083099;28;20457;-76
2023/05/10 05:15:23;;;;;;;0.87;0.70;;;13.80;95.30;;;13.77;85.08;97324.88;5071420;28;20449;-73
2023/05/10 05:17:50;;;;;;;0.60;0.60;;;13.90;96.50;;;14.08;83.79;97331.47;5051353;28;20458;-74
2023/05/10 05:20:18;;;;;;;0.63;0.63;;;14.00;95.70;;;13.92;82.33;97332.38;5081478;28;20444;-76
2023/05/10 05:22:47;;;;;;;0.87;0.60;;;14.00;93.60;;;14.03;82.16;97334.97;5088428;28;20475;-77
2023/05/10 05:25:14;;;;;;;4.33;0.60;;;14.10;93.90;;;14.02;80.97;97333.31;5084935;28;20974;-73
2023/05/10 05:27:42;;;;;;;0.70;0.70;;;14.20;93.00;;;14.06;80.51;97341.78;5081181;28;20551;-74
2023/05/10 05:30:10;;;;;;;0.83;0.60;;;14.20;92.90;;;13.95;80.42;97294.69;5086038;28;20460;-75
2023/05/10 05:32:38;;;;;;;0.70;0.70;;;14.30;93.30;;;14.48;80.31;97347.63;5064402;28;20448;-73
2023/05/10 05:35:06;;;;;;;0.50;0.50;;;14.50;93.30;;;14.61;79.30;97339.03;5073733;28;20505;-74
2023/05/10 05:37:33;;;;;;;0.73;0.50;;;14.60;92.40;;;14.70;77.86;97334.78;5085372;28;20444;-74
2023/05/10 05:40:02;;;;;;;0.70;0.60;;;14.70;91.70;;;14.55;78.16;97343.63;5062008;28;20531;-76
2023/05/10 05:42:29;;;;;;;0.83;0.80;;;14.70;91.40;;;14.33;78.39;97357.28;5078676;28;20523;-77
2023/05/10 05:44:58;;;;;;;0.83;0.83;;;14.50;91.20;;;14.26;78.80;97338.47;5081979;28;20455;-76
2023/05/10 05:47:26;;;;;;;1.07;0.67;;;14.50;91.60;;;14.31;78.15;97335.78;5078803;28;20452;-78
2023/05/10 05:49:53;;;;;;;1.03;0.70;;;14.50;91.60;;;14.33;78.44;97354.56;5061861;28;20469;-74
2023/05/10 05:52:21;;;;;;;2.10;0.80;;;14.40;91.50;;;14.49;79.05;97347.38;5067577;28;20949;-74
2023/05/10 05:54:48;;;;;;;0.80;0.80;;;14.50;92.40;;;14.60;78.51;97348.28;5078006;28;20532;-76
2023/05/10 05:57:16;;;;;;;1.10;1.00;;;14.60;92.10;;;14.69;78.02;97359.50;5084449;28;20511;-75
2023/05/10 05:59:43;;;;;;;0.73;0.73;;;14.70;91.60;;;14.62;77.93;97351.56;5076428;28;20500;-72
2023/05/10 06:02:11;;;;;;;1.80;1.10;;;14.70;91.50;;;14.96;76.89;97356.78;5080052;28;21290;-72
2023/05/10 06:04:38;;;;;;;0.90;0.90;;;14.90;91.30;;;15.06;75.44;97355.22;5080345;28;20445;-72
2023/05/10 06:07:06;;;;;;;3.20;1.20;;;15.00;90.50;;;15.08;75.52;97364.75;5063849;28;20528;-73
2023/05/10 06:09:33;;;;;;;1.70;0.87;;;15.10;90.50;;;14.92;76.00;97373.88;5076490;28;21228;-72
2023/05/10 06:12:01;;;;;;;1.30;1.20;;;15.00;90.20;;;15.04;75.68;97373.69;5080821;28;20458;-74
2023/05/10 06:14:29;;;;;;;0.90;0.90;;;15.00;90.30;;;15.04;75.37;97374.53;5081974;28;20536;-72
2023/05/10 06:16:59;;;;;;;1.10;1.00;;;15.10;90.10;;;15.49;75.11;97383.25;5080498;28;21011;-73
2023/05/10 06:19:27;;;;;;;1.30;1.17;;;15.40;90.50;;;15.75;74.22;97386.13;5057396;28;20559;-73
2023/05/10 06:21:54;;;;;;;0.80;0.80;;;15.50;90.40;;;15.26;72.98;97382.59;5067766;28;20485;-76
2023/05/10 06:24:21;;;;;;;1.30;1.20;;;15.50;87.70;;;15.26;74.42;97389.91;5081433;28;20523;-72
2023/05/10 06:26:49;;;;;;;0.80;0.80;;;15.30;88.80;;;15.11;73.09;97337.03;5078786;28;20558;-74
2023/05/10 06:29:17;;;;;;;1.30;1.10;;;15.50;88.40;;;15.49;72.81;97390.63;5085889;28;20458;-75
2023/05/10 06:31:48;;;;;;;0.97;0.97;;;15.60;87.70;;;15.86;71.90;97393.28;5067719;28;20484;-74
2023/05/10 06:34:15;;;;;;;1.07;0.97;;;15.70;87.70;;;15.59;71.70;97387.94;5088300;28;20989;-74
2023/05/10 06:36:42;;;;;;;0.93;0.93;;;15.80;86.50;;;15.28;71.70;97347.75;5073157;28;20490;-74
2023/05/10 06:39:11;;;;;;;1.10;0.87;;;15.80;86.80;;;15.51;72.30;97385.72;5065772;28;20448;-73
2023/05/10 06:41:38;;;;;;;0.80;0.80;;;15.70;86.70;;;15.82;70.24;97397.59;5066522;28;20454;-73
2023/05/10 06:44:06;;;;;;;0.90;0.73;;;15.80;86.00;;;15.83;70.48;97392.97;5061169;28;21176;-75
2023/05/10 06:46:33;;;;;;;1.60;1.20;;;15.90;86.20;;;15.50;70.83;97398.50;5059644;28;20549;-75
2023/05/10 06:49:02;;;;;;;1.00;1.00;;;15.70;85.50;;;15.95;71.23;97399.06;5080363;28;20466;-73
2023/05/10 06:51:29;;;;;;;1.40;1.00;;;15.90;86.50;;;15.70;70.00;97391.56;5073243;28;21295;-74
2023/05/10 06:53:56;;;;;;;1.33;1.23;;;15.90;85.10;;;15.66;70.87;97398.59;5059889;28;20997;-74
2023/05/10 06:56:24;;;;;;;1.20;1.08;;;15.90;85.50;;;15.67;70.07;97401.06;5075751;28;20467;-75
2023/05/10 06:58:51;;;;;;;2.30;1.03;;;15.80;85.10;;;15.99;68.75;97393.88;5076154;28;20199;-73
2023/05/10 07:01:18;;;;;;;1.10;1.00;;;16.10;84.90;;;15.66;69.36;97406.75;5076487;28;20470;-74
2023/05/10 07:03:45;;;;;;;1.30;1.20;;;15.90;84.50;;;15.52;69.82;97396.34;5089223;28;20473;-74
2023/05/10 07:06:14;;;;;;;1.07;0.97;;;15.70;84.60;;;15.46;70.81;97413.72;5082535;28;20439;-73
2023/05/10 07:08:41;;;;;;;1.33;1.07;;;15.60;85.30;;;15.74;69.74;97403.56;5059510;28;20801;-74
2023/05/10 07:11:08;;;;;;;1.20;0.90;;;15.80;85.10;;;15.67;69.02;97400.22;5071476;28;20470;-74
2023/05/10 07:13:36;;;;;;;1.40;1.27;;;15.90;84.30;;;16.04;67.59;97396.66;5058278;28;20627;-72
2023/05/10 07:16:04;;;;;;;0.93;0.93;;;16.00;84.00;;;16.03;67.38;97411.34;5067310;28;20477;-75
2023/05/10 07:18:31;;;;;;;0.87;0.87;;;16.20;83.40;;;16.06;65.84;97413.53;5054942;28;20515;-75
2023/05/10 07:20:58;;;;;;;0.87;0.87;;;16.20;82.30;;;15.83;66.26;97369.25;5081252;28;20547;-74
2023/05/10 07:23:29;;;;;;;1.00;0.60;;;16.20;82.70;;;16.36;66.18;97417.47;5091204;28;20483;-75
2023/05/10 07:25:57;;;;;;;1.20;0.90;;;16.40;82.70;;;16.31;65.47;97420.19;5086298;28;20524;-75
2023/05/10 07:28:25;;;;;;;1.10;0.90;;;16.30;82.10;;;16.67;65.59;97420.25;5063662;28;20954;-74
2023/05/10 07:30:52;;;;;;;0.87;0.87;;;16.60;82.60;;;16.93;63.09;97428.50;5082439;28;20454;-74
2023/05/10 07:33:20;;;;;;;1.17;0.83;;;16.90;81.10;;;17.38;62.96;97428.78;5088882;28;20469;-73
2023/05/10 07:35:47;;;;;;;0.70;0.70;;;17.20;81.40;;;17.81;61.90;97431.16;5086415;28;20463;-73
2023/05/10 07:38:15;;;;;;;1.33;1.00;;;17.60;80.90;;;17.77;60.84;97430.09;5085404;28;20463;-73
2023/05/10 07:40:43;;;;;;;1.33;1.00;;;17.80;80.00;;;17.05;62.01;97427.41;5065198;28;20446;-74
2023/05/10 07:43:10;;;;;;;0.70;0.70;;;17.30;79.10;;;16.55;63.40;97436.06;5076324;28;20800;-72
2023/05/10 07:45:38;;;;;;;1.50;1.00;;;16.90;79.60;;;16.21;64.53;97444.66;5061680;28;21125;-71
2023/05/10 07:48:05;;;;;;;1.13;1.03;;;16.50;80.40;;;16.22;65.37;97438.94;5068492;28;20986;-73
2023/05/10 07:50:32;;;;;;;0.97;0.90;;;16.40;81.10;;;15.88;65.93;97424.88;5063277;28;20512;-73
2023/05/10 07:52:59;;;;;;;0.97;0.90;;;16.10;81.10;;;16.18;65.46;97440.56;5077636;28;23319;-73
2023/05/10 07:55:26;;;;;;;1.23;0.73;;;16.20;81.50;;;16.14;65.05;97445.72;5079256;28;20969;-72
2023/05/10 07:57:55;;;;;;;1.00;0.90;;;16.20;81.10;;;15.81;65.47;97441.44;5060247;28;20455;-73
2023/05/10 08:00:22;;;;;;;1.30;1.03;;;16.00;81.10;;;15.69;67.06;97431.56;5081571;28;20523;-72
2023/05/10 08:02:50;;;;;;;0.90;0.80;;;15.80;82.00;;;16.02;65.40;97439.69;5084053;28;20463;-74
2023/05/10 08:05:17;;;;;;;1.20;1.10;;;16.00;81.20;;;15.76;66.01;97439.50;5064090;28;20667;-73
2023/05/10 08:07:46;;;;;;;1.13;0.97;;;16.00;81.30;;;15.79;67.16;97447.16;5085305;28;20461;-74
2023/05/10 08:10:13;;;;;;;2.33;1.00;;;15.80;82.10;;;16.04;66.01;97448.41;5069616;28;20863;-72
2023/05/10 08:12:41;;;;;;;1.37;1.00;;;16.00;82.10;;;15.93;66.50;97444.00;5078256;28;20601;-74
2023/05/10 08:15:11;;;;;;;1.90;1.20;;;16.00;82.10;;;16.03;66.43;97444.06;5073674;28;20458;-73
2023/05/10 08:17:39;;;;;;;0.97;0.87;;;16.00;82.00;;;16.52;65.30;97447.50;5084267;28;20462;-73
2023/05/10 08:20:08;;;;;;;2.00;1.20;;;16.30;82.10;;;16.79;64.06;97446.47;5086565;28;20450;-74
2023/05/10 08:22:35;;;;;;;1.10;1.00;;;16.60;81.40;;;16.83;63.52;97450.28;5062991;28;20449;-74
2023/05/10 08:25:03;;;;;;;1.00;0.90;;;16.80;81.00;;;16.88;62.87;97457.69;5079124;28;20479;-72
2023/05/10 08:27:31;;;;;;;1.23;1.13;;;16.90;80.10;;;16.39;64.46;97457.81;5079684;28;20689;-74
2023/05/10 08:29:58;;;;;;;1.00;0.90;;;16.60;80.30;;;16.56;63.77;97456.78;5053357;28;20464;-73
2023/05/10 08:32:27;;;;;;;1.13;1.03;;;16.70;80.30;;;16.94;63.54;97457.41;5072172;28;20508;-75
2023/05/10 08:34:54;;;;;;;1.07;1.00;;;16.80;80.50;;;17.58;61.45;97457.16;5056544;28;21160;-76
2023/05/10 08:37:21;;;;;;;1.57;1.37;;;17.30;80.10;;;17.35;60.45;97412.97;5083458;28;20454;-75
2023/05/10 08:39:49;;;;;;;1.43;0.77;;;17.60;78.50;;;17.72;59.17;97457.44;5062998;28;20554;-75
2023/05/10 08:42:21;;;;;;;3.77;1.30;;;17.80;77.10;;;18.18;58.66;97445.56;5080439;28;20460;-74
2023/05/10 08:44:49;;;;;;;1.20;1.10;;;18.10;77.50;;;19.23;56.85;97458.41;5054777;28;20479;-75
2023/05/10 08:47:19;;;;;;;1.53;1.40;;;18.80;77.00;;;19.05;55.50;97450.91;5070143;28;20462;-75
2023/05/10 08:49:50;;;;;;;1.20;1.07;;;19.10;75.00;;;18.59;55.36;97463.72;5074730;28;20459;-74
2023/05/10 08:52:19;;;;;;;1.57;1.10;;;18.80;72.70;;;18.02;58.00;97463.94;5076885;28;20495;-75
2023/05/10 08:54:47;;;;;;;1.10;1.00;;;18.30;74.30;;;18.44;58.05;97463.81;5073791;28;20505;-74
2023/05/10 08:57:14;;;;;;;0.90;0.90;;;18.40;75.60;;;19.38;55.80;97467.63;5058645;28;20549;-73
2023/05/10 08:59:42;;;;;;;1.40;1.17;;;18.80;75.10;;;19.41;53.62;97464.31;5071864;28;20546;-75
2023/05/10 09:02:12;;;;;;;1.17;1.03;;;19.30;71.80;;;18.97;54.87;97461.31;5060602;28;20924;-77
2023/05/10 09:04:40;;;;;;;1.80;0.93;;;19.20;71.50;;;18.63;56.07;97467.53;5061418;28;20478;-74
2023/05/10 09:07:09;;;;;;;1.30;1.13;;;18.90;71.80;;;18.54;56.22;97466.47;5050136;28;20813;-73
2023/05/10 09:09:44;;;;;;;1.47;1.13;;;18.70;72.30;;;17.82;59.96;97476.53;5054866;28;20920;-73
2023/05/10 09:12:13;;;;;;;1.80;1.70;;;18.30;74.90;;;17.37;64.14;97483.69;5070686;28;20477;-74
2023/05/10 09:14:41;;;;;;;1.40;1.10;;;17.70;78.40;;;16.14;68.58;97489.31;5054666;28;20451;-72
2023/05/10 09:17:08;;;;;;;2.13;1.20;;;16.80;81.80;;;15.30;71.90;97495.25;5070874;28;20474;-74
2023/05/10 09:19:35;;;;;;;1.33;1.23;;;15.90;84.00;;;14.88;73.28;97490.50;5071406;28;20491;-73
2023/05/10 09:22:02;;;;;;;2.10;1.43;;;15.30;85.70;;;14.76;75.19;97487.94;5084377;28;20450;-74
2023/05/10 09:24:31;;;;;;;1.90;1.60;;;15.00;88.40;;;14.84;75.61;97498.34;5085654;28;20481;-73
2023/05/10 09:26:59;;;;;;;2.63;1.80;;;15.00;90.40;;;14.97;74.08;97494.44;5083710;28;20556;-73
2023/05/10 09:29:29;;;;;;;1.63;1.53;;;15.10;89.10;;;15.15;74.74;97497.84;5077975;28;20692;-72
2023/05/10 09:31:56;;;;;;;1.67;1.57;;;15.20;89.90;;;14.88;76.77;97501.38;5075782;28;20546;-73
2023/05/10 09:34:34;;;;;;;2.23;1.53;;;15.10;90.50;;;15.12;74.48;97460.28;5079520;28;20466;-74
2023/05/10 09:37:04;;;;;;;2.37;1.60;;;15.30;90.10;;;15.51;73.54;97500.88;5084224;28;20954;-74
2023/05/10 09:39:36;;;;;;;1.60;1.50;;;15.50;89.00;;;15.92;70.72;97502.28;5080802;28;20515;-75
2023/05/10 09:42:05;;;;;;;2.20;2.00;;;15.70;86.90;;;16.03;69.16;97497.69;5083646;28;20588;-73
2023/05/10 09:44:33;;;;;;;2.90;2.00;;;16.00;85.40;;;16.19;68.97;97495.91;5080217;28;20470;-75
2023/05/10 09:47:00;;;;;;;1.70;1.60;;;16.20;85.10;;;16.73;66.28;97492.00;5066567;28;21348;-74
2023/05/10 09:49:28;;;;;;;2.97;1.87;;;16.50;84.00;;;17.03;65.85;97495.09;5076652;28;20455;-73
2023/05/10 09:52:03;;;;;;;1.57;1.47;;;16.80;83.50;;;17.33;63.91;97496.22;5075340;28;21750;-73
2023/05/10 09:54:30;;;;;;;2.27;1.97;;;17.10;82.20;;;17.87;63.40;97485.81;5079961;28;20510;-73
2023/05/10 09:57:00;;;;;;;2.00;1.73;;;17.60;82.70;;;18.23;61.04;97485.75;5059101;28;20470;-75
2023/05/10 09:59:28;;;;;;;2.27;1.57;;;17.90;80.50;;;18.53;59.78;97475.78;5081364;28;20454;-73
2023/05/10 10:01:58;;;;;;;1.30;1.20;;;18.30;79.30;;;18.26;59.00;97468.78;5081157;28;20447;-75
2023/05/10 10:04:26;;;;;;;1.60;1.40;;;18.30;77.50;;;18.32;59.44;97473.16;5089567;28;20470;-72
2023/05/10 10:07:02;;;;;;;1.47;1.37;;;18.40;78.30;;;18.35;59.05;97474.47;5070586;28;20455;-74
2023/05/10 10:09:29;;;;;;;1.27;1.17;;;18.40;77.50;;;18.30;59.77;97478.09;5066189;28;20494;-75
2023/05/10 10:11:57;;;;;;;3.70;1.80;;;18.30;77.40;;;18.02;59.45;97480.34;5068156;28;20936;-72
2023/05/10 10:14:25;;;;;;;2.27;1.60;;;18.10;76.80;;;18.21;59.67;97468.81;5068127;28;20444;-76
2023/05/10 10:16:54;;;;;;;1.50;1.40;;;18.10;77.60;;;18.08;57.99;97479.22;5074427;28;20478;-76
2023/05/10 10:19:22;;;;;;;1.47;1.30;;;18.10;75.50;;;17.98;57.90;97471.03;5079924;28;20475;-75
2023/05/10 10:21:51;;;;;;;1.10;1.00;;;18.10;74.80;;;18.50;55.65;97474.44;5061576;28;20456;-73
2023/05/10 10:24:18;;;;;;;1.30;1.20;;;18.40;74.00;;;18.69;56.21;97425.34;5089693;28;20497;-71
2023/05/10 10:26:48;;;;;;;1.50;1.40;;;18.80;74.40;;;19.15;54.09;97472.72;5056728;28;20534;-74
2023/05/10 10:29:31;;;;;;;1.37;1.27;;;19.20;72.10;;;19.32;53.25;97472.31;5082449;28;20440;-73